createdAt,value
2018-06-17T00:00:12.968Z,6.73
2018-06-17T00:02:41.476Z,6.20
2018-06-17T00:05:10.032Z,6.87
2018-06-17T00:07:38.620Z,6.50
2018-06-17T00:10:07.130Z,6.40
2018-06-17T00:12:35.606Z,5.90
2018-06-17T00:15:04.385Z,5.90
2018-06-17T00:17:32.817Z,5.70
2018-06-17T00:20:01.429Z,6.27
2018-06-17T00:22:29.861Z,5.97
2018-06-17T00:24:58.502Z,6.20
2018-06-17T00:27:26.953Z,5.80
2018-06-17T00:29:55.680Z,5.67
2018-06-17T00:32:24.108Z,6.40
2018-06-17T00:34:52.631Z,5.27
2018-06-17T00:37:21.200Z,5.10
2018-06-17T00:39:49.669Z,5.60
2018-06-17T00:42:18.112Z,5.80
2018-06-17T00:44:46.560Z,5.50
2018-06-17T00:47:15.031Z,5.80
2018-06-17T00:49:43.463Z,4.80
2018-06-17T00:52:11.960Z,5.73
2018-06-17T00:54:40.779Z,4.93
2018-06-17T00:57:20.508Z,5.50
2018-06-17T00:59:49.004Z,5.30
2018-06-17T01:02:17.551Z,4.77
2018-06-17T01:04:45.967Z,4.40
2018-06-17T01:07:14.468Z,5.47
2018-06-17T01:09:43.013Z,4.90
2018-06-17T01:12:11.529Z,5.50
2018-06-17T01:14:40.088Z,4.93
2018-06-17T01:17:08.537Z,4.60
2018-06-17T01:19:36.964Z,5.77
2018-06-17T01:22:05.520Z,4.97
2018-06-17T01:24:34.152Z,5.00
2018-06-17T01:27:02.628Z,5.30
2018-06-17T01:29:31.056Z,5.30
2018-06-17T01:31:59.483Z,5.00
2018-06-17T01:34:28.101Z,4.30
2018-06-17T01:36:56.705Z,4.37
2018-06-17T01:39:25.424Z,5.03
2018-06-17T01:41:54.025Z,5.20
2018-06-17T01:44:22.800Z,4.03
2018-06-17T01:46:51.381Z,4.80
2018-06-17T01:49:19.820Z,4.50
2018-06-17T01:51:48.358Z,4.40
2018-06-17T01:54:16.923Z,3.47
2018-06-17T01:56:45.508Z,4.00
2018-06-17T01:59:13.839Z,3.50
2018-06-17T02:01:42.304Z,4.07
2018-06-17T02:04:16.062Z,3.77
2018-06-17T02:06:49.777Z,4.00
2018-06-17T02:09:23.576Z,3.67
2018-06-17T02:11:57.381Z,3.80
2018-06-17T02:14:31.158Z,3.33
2018-06-17T02:16:59.616Z,3.73
2018-06-17T02:19:28.095Z,3.23
2018-06-17T02:21:56.701Z,3.63
2018-06-17T02:24:25.202Z,3.93
2018-06-17T02:26:53.965Z,3.10
2018-06-17T02:29:22.394Z,3.53
2018-06-17T02:31:51.001Z,3.53
2018-06-17T02:34:19.408Z,4.03
2018-06-17T02:36:47.856Z,3.37
2018-06-17T02:39:16.368Z,3.43
2018-06-17T02:41:44.830Z,3.30
2018-06-17T02:44:13.344Z,3.53
2018-06-17T02:46:47.185Z,3.73
2018-06-17T02:49:20.818Z,3.40
2018-06-17T02:51:54.541Z,3.43
2018-06-17T02:54:28.456Z,3.80
2018-06-17T02:56:56.887Z,3.70
2018-06-17T02:59:25.426Z,4.80
2018-06-17T03:01:54.331Z,3.80
2018-06-17T03:04:22.950Z,4.40
2018-06-17T03:06:51.433Z,4.33
2018-06-17T03:09:20.120Z,5.00
2018-06-17T03:11:48.544Z,4.40
2018-06-17T03:14:17.183Z,4.00
2018-06-17T03:16:45.605Z,4.27
2018-06-17T03:19:14.285Z,3.87
2018-06-17T03:21:42.759Z,3.80
2018-06-17T03:24:11.215Z,4.37
2018-06-17T03:26:45.252Z,4.10
2018-06-17T03:29:19.072Z,4.27
2018-06-17T03:31:52.827Z,4.00
2018-06-17T03:34:21.288Z,3.60
2018-06-17T03:36:49.732Z,3.80
2018-06-17T03:39:18.182Z,4.20
2018-06-17T03:41:46.606Z,4.70
2018-06-17T03:44:15.089Z,3.50
2018-06-17T03:46:43.568Z,4.00
2018-06-17T03:49:12.040Z,4.00
2018-06-17T03:51:40.477Z,3.90
2018-06-17T03:54:08.904Z,4.03
2018-06-17T03:56:37.469Z,4.10
2018-06-17T03:59:05.939Z,3.27
2018-06-17T04:01:34.451Z,4.10
2018-06-17T04:04:02.973Z,3.03
2018-06-17T04:06:31.415Z,3.80
2018-06-17T04:08:59.967Z,3.00
2018-06-17T04:11:28.412Z,3.33
2018-06-17T04:13:56.832Z,3.33
2018-06-17T04:16:25.332Z,3.40
2018-06-17T04:18:53.900Z,3.27
2018-06-17T04:21:22.340Z,3.17
2018-06-17T04:23:50.800Z,3.20
2018-06-17T04:26:19.253Z,3.00
2018-06-17T04:28:47.997Z,3.40
2018-06-17T04:31:16.446Z,3.60
2018-06-17T04:33:44.912Z,3.13
2018-06-17T04:36:13.428Z,2.90
2018-06-17T04:38:41.861Z,3.20
2018-06-17T04:41:10.400Z,3.80
2018-06-17T04:43:38.813Z,2.93
2018-06-17T04:46:07.521Z,2.87
2018-06-17T04:48:35.989Z,3.30
2018-06-17T04:51:04.425Z,3.67
2018-06-17T04:53:32.856Z,3.30
2018-06-17T04:56:01.316Z,3.70
2018-06-17T04:58:29.763Z,3.57
2018-06-17T05:00:58.377Z,3.00
2018-06-17T05:03:26.865Z,3.17
2018-06-17T05:05:55.313Z,3.67
2018-06-17T05:08:23.788Z,3.73
2018-06-17T05:10:52.376Z,3.00
2018-06-17T05:13:20.950Z,2.40
2018-06-17T05:15:49.657Z,2.60
2018-06-17T05:18:18.200Z,3.40
2018-06-17T05:20:46.702Z,3.17
2018-06-17T05:23:15.243Z,2.60
2018-06-17T05:25:43.741Z,3.00
2018-06-17T05:28:12.176Z,2.60
2018-06-17T05:30:40.685Z,3.37
2018-06-17T05:33:09.257Z,2.60
2018-06-17T05:35:37.817Z,2.87
2018-06-17T05:38:06.353Z,2.87
2018-06-17T05:40:34.872Z,2.83
2018-06-17T05:43:03.328Z,3.90
2018-06-17T05:45:31.784Z,3.03
2018-06-17T05:48:00.240Z,3.30
2018-06-17T05:50:28.797Z,3.70
2018-06-17T05:52:57.240Z,3.13
2018-06-17T05:55:25.799Z,2.83
2018-06-17T05:57:54.272Z,2.80
2018-06-17T06:00:22.728Z,2.83
2018-06-17T06:02:51.348Z,3.20
2018-06-17T06:05:19.780Z,3.00
2018-06-17T06:07:48.240Z,2.83
2018-06-17T06:10:16.691Z,3.43
2018-06-17T06:12:45.236Z,3.30
2018-06-17T06:15:13.773Z,3.37
2018-06-17T06:17:42.300Z,3.00
2018-06-17T06:20:11.220Z,3.07
2018-06-17T06:22:39.727Z,3.40
2018-06-17T06:25:08.300Z,4.00
2018-06-17T06:27:36.903Z,3.60
2018-06-17T06:30:05.479Z,3.40
2018-06-17T06:32:34.088Z,3.63
2018-06-17T06:35:02.724Z,3.50
2018-06-17T06:37:31.180Z,3.63
2018-06-17T06:39:59.869Z,3.33
2018-06-17T06:42:28.292Z,3.73
2018-06-17T06:44:56.849Z,3.80
2018-06-17T06:47:25.339Z,3.47
2018-06-17T06:49:53.851Z,3.80
2018-06-17T06:52:22.448Z,3.57
2018-06-17T06:54:50.968Z,3.50
2018-06-17T06:57:19.600Z,3.90
2018-06-17T06:59:48.084Z,3.43
2018-06-17T07:02:27.885Z,3.40
2018-06-17T07:05:07.900Z,4.33
2018-06-17T07:07:48.132Z,3.30
2018-06-17T07:10:25.084Z,3.63
2018-06-17T07:12:53.936Z,3.50
2018-06-17T07:15:35.085Z,3.57
2018-06-17T07:18:15.149Z,3.93
2018-06-17T07:20:44.029Z,3.53
2018-06-17T07:23:12.750Z,3.93
2018-06-17T07:26:51.768Z,3.63
2018-06-17T07:29:36.123Z,3.70
2018-06-17T07:32:04.797Z,3.27
2018-06-17T07:34:33.464Z,3.20
2018-06-17T07:37:01.939Z,3.47
2018-06-17T07:41:40.096Z,3.20
2018-06-17T07:44:08.695Z,3.20
2018-06-17T07:46:37.212Z,3.17
2018-06-17T07:49:26.448Z,3.37
2018-06-17T07:52:08.288Z,3.70
2018-06-17T07:54:38.230Z,3.37
2018-06-17T07:57:07.395Z,3.17
2018-06-17T07:59:36.269Z,3.10
2018-06-17T08:02:05.475Z,3.47
2018-06-17T08:04:34.049Z,3.23
2018-06-17T08:07:02.534Z,3.27
2018-06-17T08:09:31.121Z,3.70
2018-06-17T08:12:00.105Z,3.50
2018-06-17T08:14:28.545Z,2.90
2018-06-17T08:16:57.602Z,3.37
2018-06-17T08:19:27.305Z,3.47
2018-06-17T08:21:56.630Z,3.10
2018-06-17T08:24:25.155Z,3.40
2018-06-17T08:26:53.676Z,3.27
2018-06-17T08:29:22.176Z,3.17
2018-06-17T08:31:50.396Z,3.50
2018-06-17T08:34:19.037Z,3.00
2018-06-17T08:36:47.509Z,2.77
2018-06-17T08:39:19.246Z,3.00
2018-06-17T08:41:47.763Z,2.73
2018-06-17T08:44:17.025Z,3.07
2018-06-17T08:46:46.308Z,3.00
2018-06-17T08:49:15.208Z,3.20
2018-06-17T08:51:44.184Z,3.90
2018-06-17T08:54:12.722Z,2.80
2018-06-17T08:56:41.276Z,3.87
2018-06-17T08:59:09.898Z,3.00
2018-06-17T09:01:38.444Z,3.30
2018-06-17T09:04:06.932Z,2.80
2018-06-17T09:06:35.362Z,3.13
2018-06-17T09:09:06.179Z,2.80
2018-06-17T09:11:34.593Z,3.30
2018-06-17T09:14:03.381Z,2.60
2018-06-17T09:16:31.926Z,2.33
2018-06-17T09:19:00.490Z,3.10
2018-06-17T09:21:29.077Z,2.53
2018-06-17T09:23:57.549Z,3.50
2018-06-17T09:26:25.977Z,3.27
2018-06-17T09:28:54.609Z,5.43
2018-06-17T09:31:23.140Z,2.70
2018-06-17T09:33:51.581Z,2.60
2018-06-17T09:36:20.059Z,2.90
2018-06-17T09:38:48.696Z,3.10
2018-06-17T09:41:17.523Z,2.60
2018-06-17T09:43:46.239Z,2.50
2018-06-17T09:46:14.701Z,2.70
2018-06-17T09:48:43.153Z,2.80
2018-06-17T09:51:11.640Z,2.43
2018-06-17T09:53:40.185Z,2.73
2018-06-17T09:56:08.646Z,2.63
2018-06-17T09:58:37.470Z,3.00
2018-06-17T10:01:06.260Z,3.23
2018-06-17T10:03:34.743Z,3.20
2018-06-17T10:06:03.392Z,2.90
2018-06-17T10:08:31.844Z,2.97
2018-06-17T10:11:01.602Z,3.53
2018-06-17T10:13:31.421Z,2.90
2018-06-17T10:15:59.957Z,2.93
2018-06-17T10:18:29.097Z,3.07
2018-06-17T10:20:57.670Z,3.00
2018-06-17T10:23:26.576Z,2.63
2018-06-17T10:25:55.042Z,2.80
2018-06-17T10:28:24.547Z,3.23
2018-06-17T10:30:53.929Z,3.50
2018-06-17T10:33:22.803Z,2.93
2018-06-17T10:35:51.374Z,2.80
2018-06-17T10:38:19.812Z,2.60
2018-06-17T10:40:48.392Z,3.07
2018-06-17T10:43:18.432Z,2.97
2018-06-17T10:45:47.117Z,3.17
2018-06-17T10:48:15.856Z,2.73
2018-06-17T10:50:44.361Z,2.57
2018-06-17T10:53:13.105Z,2.80
2018-06-17T10:55:41.837Z,2.50
2018-06-17T10:58:10.351Z,2.73
2018-06-17T11:00:39.073Z,3.20
2018-06-17T11:03:07.617Z,3.00
2018-06-17T11:05:36.190Z,3.30
2018-06-17T11:08:04.324Z,2.83
2018-06-17T11:10:33.058Z,2.73
2018-06-17T11:13:01.648Z,2.80
2018-06-17T11:15:30.397Z,3.00
2018-06-17T11:17:59.033Z,3.23
2018-06-17T11:20:27.628Z,3.40
2018-06-17T11:22:56.141Z,2.90
2018-06-17T11:25:24.705Z,3.10
2018-06-17T11:27:53.227Z,2.60
2018-06-17T11:30:21.842Z,3.13
2018-06-17T11:32:50.297Z,3.20
2018-06-17T11:35:18.968Z,3.13
2018-06-17T11:37:47.457Z,2.87
2018-06-17T11:40:15.857Z,3.27
2018-06-17T11:42:44.315Z,2.43
2018-06-17T11:45:12.845Z,2.83
2018-06-17T11:47:41.342Z,3.20
2018-06-17T11:50:09.586Z,2.90
2018-06-17T11:52:38.206Z,2.80
2018-06-17T11:55:06.669Z,2.53
2018-06-17T11:57:35.113Z,2.60
2018-06-17T12:00:03.667Z,3.30
2018-06-17T12:02:32.311Z,2.70
2018-06-17T12:05:00.896Z,3.20
2018-06-17T12:07:29.074Z,2.60
2018-06-17T12:09:57.240Z,3.40
2018-06-17T12:12:25.413Z,3.00
2018-06-17T12:14:54.161Z,3.20
2018-06-17T12:17:23.172Z,2.87
2018-06-17T12:19:51.659Z,3.10
2018-06-17T12:22:20.088Z,2.73
2018-06-17T12:24:48.561Z,2.73
2018-06-17T12:27:17.017Z,2.70
2018-06-17T12:29:45.247Z,3.43
2018-06-17T12:32:13.736Z,2.67
2018-06-17T12:34:42.329Z,3.10
2018-06-17T12:37:10.764Z,2.83
2018-06-17T12:39:39.237Z,2.60
2018-06-17T12:42:07.904Z,3.07
2018-06-17T12:44:36.640Z,2.83
2018-06-17T12:47:05.181Z,2.90
2018-06-17T12:49:33.635Z,3.10
2018-06-17T12:52:02.124Z,3.23
2018-06-17T12:54:31.000Z,3.20
2018-06-17T12:56:59.453Z,3.00
2018-06-17T12:59:27.943Z,3.30
2018-06-17T13:01:56.617Z,2.60
2018-06-17T13:04:25.340Z,2.70
2018-06-17T13:06:53.829Z,3.10
2018-06-17T13:09:22.556Z,3.17
2018-06-17T13:11:51.044Z,3.77
2018-06-17T13:14:19.732Z,3.53
2018-06-17T13:16:48.185Z,3.87
2018-06-17T13:19:16.762Z,2.80
2018-06-17T13:21:45.365Z,2.30
2018-06-17T13:24:13.817Z,3.10
2018-06-17T13:26:42.300Z,2.73
2018-06-17T13:29:10.802Z,2.60
2018-06-17T13:31:39.337Z,3.17
2018-06-17T13:34:07.843Z,2.83
2018-06-17T13:36:36.360Z,2.83
2018-06-17T13:39:07.272Z,2.70
2018-06-17T13:41:36.312Z,3.17
2018-06-17T13:44:04.901Z,2.50
2018-06-17T13:46:33.544Z,2.30
2018-06-17T13:49:02.133Z,2.57
2018-06-17T13:51:30.821Z,2.70
2018-06-17T13:53:59.721Z,2.40
2018-06-17T13:56:28.251Z,2.20
2018-06-17T13:58:56.745Z,2.63
2018-06-17T14:01:25.198Z,2.27
2018-06-17T14:03:53.688Z,2.23
2018-06-17T14:06:22.316Z,2.13
2018-06-17T14:08:50.789Z,2.57
2018-06-17T14:11:19.293Z,2.97
2018-06-17T14:13:47.783Z,2.90
2018-06-17T14:16:16.266Z,3.70
2018-06-17T14:18:44.746Z,2.70
2018-06-17T14:21:13.324Z,2.50
2018-06-17T14:23:41.804Z,2.93
2018-06-17T14:26:10.489Z,2.57
2018-06-17T14:28:39.077Z,2.40
2018-06-17T14:31:07.600Z,2.90
2018-06-17T14:33:36.168Z,2.77
2018-06-17T14:36:04.665Z,2.80
2018-06-17T14:38:33.132Z,3.17
2018-06-17T14:41:06.896Z,2.50
2018-06-17T14:44:42.708Z,2.63
2018-06-17T14:47:16.640Z,2.80
2018-06-17T14:50:52.141Z,2.73
2018-06-17T14:53:20.616Z,2.73
2018-06-17T14:55:49.089Z,2.57
2018-06-17T14:58:17.563Z,3.10
2018-06-17T15:00:46.061Z,3.20
2018-06-17T15:03:14.514Z,3.10
2018-06-17T15:05:42.964Z,2.57
2018-06-17T16:53:46.733Z,3.30
2018-06-17T16:56:20.739Z,3.40
2018-06-17T16:58:54.621Z,3.17
2018-06-17T17:01:23.443Z,3.33
2018-06-17T17:03:51.916Z,3.00
2018-06-17T17:06:20.373Z,2.60
2018-06-17T17:08:48.996Z,3.50
2018-06-17T17:11:17.496Z,3.40
2018-06-17T17:13:45.962Z,3.70
2018-06-17T17:16:14.594Z,3.60
2018-06-17T17:18:43.176Z,2.87
2018-06-17T17:21:11.967Z,2.90
2018-06-17T17:23:40.373Z,3.13
2018-06-17T17:26:08.728Z,2.97
2018-06-17T17:28:37.178Z,3.20
2018-06-17T17:31:05.686Z,2.67
2018-06-17T17:33:39.755Z,3.17
2018-06-17T17:36:13.538Z,3.00
2018-06-17T17:38:47.356Z,3.40
2018-06-17T17:41:15.811Z,2.97
2018-06-17T17:43:44.345Z,3.33
2018-06-17T17:46:18.042Z,2.90
2018-06-17T17:48:46.493Z,3.33
2018-06-17T17:51:14.968Z,3.70
2018-06-17T17:53:43.668Z,3.33
2018-06-17T17:56:12.105Z,3.20
2018-06-17T17:58:40.628Z,2.80
2018-06-17T18:01:09.257Z,2.80
2018-06-17T18:03:37.700Z,3.10
2018-06-17T18:06:06.175Z,3.30
2018-06-17T18:08:34.637Z,2.83
2018-06-17T18:11:03.125Z,3.60
2018-06-17T18:13:31.704Z,3.70
2018-06-17T18:16:00.297Z,2.83
2018-06-17T18:18:28.758Z,3.67
2018-06-17T18:20:57.428Z,2.77
2018-06-17T18:23:26.001Z,3.10
2018-06-17T18:25:59.784Z,3.23
2018-06-17T18:28:33.713Z,3.10
2018-06-17T18:31:03.838Z,2.87
2018-06-17T18:33:37.550Z,2.73
2018-06-17T18:36:12.616Z,3.20
2018-06-17T18:38:42.445Z,3.60
2018-06-17T18:41:12.069Z,2.87
2018-06-17T18:43:41.097Z,2.93
2018-06-17T18:46:10.652Z,3.17
2018-06-17T18:48:39.164Z,3.20
2018-06-17T18:51:07.706Z,3.50
2018-06-17T18:53:36.241Z,2.70
2018-06-17T18:56:04.715Z,3.27
2018-06-17T18:58:33.362Z,3.53
2018-06-17T19:01:02.046Z,3.60
2018-06-17T19:03:30.513Z,2.83
2018-06-17T19:05:58.993Z,2.80
2018-06-17T19:08:33.118Z,3.10
2018-06-17T19:11:06.913Z,3.53
2018-06-17T19:13:40.728Z,3.73
2018-06-17T19:16:16.235Z,3.20
2018-06-17T19:18:44.772Z,3.20
2018-06-17T19:21:15.053Z,3.20
2018-06-17T19:23:43.609Z,2.70
2018-06-17T19:26:12.066Z,2.67
2018-06-17T19:28:40.500Z,3.23
2018-06-17T19:31:09.065Z,3.13
2018-06-17T19:33:37.501Z,3.30
2018-06-17T19:36:06.063Z,3.30
2018-06-17T19:38:34.553Z,3.30
2018-06-17T19:41:03.254Z,3.20
2018-06-17T19:43:31.819Z,4.40
2018-06-17T19:46:00.291Z,3.67
2018-06-17T19:48:28.841Z,3.20
2018-06-17T19:51:02.931Z,2.90
2018-06-17T19:53:36.780Z,3.07
2018-06-17T19:56:10.764Z,2.77
2018-06-17T19:58:44.680Z,2.67
2018-06-17T20:01:13.393Z,3.07
2018-06-17T20:03:41.872Z,3.03
2018-06-17T20:06:10.547Z,2.30
2018-06-17T20:08:39.129Z,2.90
2018-06-17T20:11:07.577Z,3.10
2018-06-17T20:13:36.127Z,3.10
2018-06-17T20:16:05.001Z,3.27
2018-06-17T20:18:33.240Z,2.87
2018-06-17T20:21:01.680Z,2.70
2018-06-17T20:23:30.156Z,2.83
2018-06-17T20:25:58.663Z,2.73
2018-06-17T20:28:27.208Z,3.90
2018-06-17T20:30:59.968Z,2.97
2018-06-17T20:33:33.763Z,3.03
2018-06-17T20:36:07.461Z,3.20
2018-06-17T20:38:41.344Z,2.67
2018-06-17T20:41:15.150Z,3.10
2018-06-17T20:43:46.556Z,3.00
2018-06-17T20:46:15.199Z,2.80
2018-06-17T20:48:43.829Z,3.20
2018-06-17T20:51:12.382Z,3.30
2018-06-17T20:53:41.185Z,2.93
2018-06-17T20:56:09.765Z,3.40
2018-06-17T20:58:38.254Z,3.30
2018-06-17T21:01:06.680Z,4.00
2018-06-17T21:03:35.335Z,3.70
2018-06-17T21:06:04.014Z,2.83
2018-06-17T21:08:32.672Z,3.40
2018-06-17T21:11:01.259Z,3.20
2018-06-17T21:13:29.831Z,2.97
2018-06-17T21:15:58.288Z,3.20
2018-06-17T21:18:32.092Z,3.17
2018-06-17T21:21:06.029Z,2.80
2018-06-17T21:23:39.921Z,3.37
2018-06-17T21:27:13.441Z,3.70
2018-06-17T21:29:42.072Z,3.50
2018-06-17T21:32:10.606Z,2.90
2018-06-17T21:34:38.809Z,3.60
2018-06-17T21:37:07.584Z,3.50
2018-06-17T21:39:36.036Z,3.37
2018-06-17T21:42:04.578Z,3.23
2018-06-17T21:44:33.094Z,3.40
2018-06-17T21:47:01.686Z,3.30
2018-06-17T21:49:30.205Z,3.40
2018-06-17T21:51:58.683Z,3.30
2018-06-17T21:54:27.328Z,3.43
2018-06-17T21:56:55.951Z,3.17
2018-06-17T21:59:24.428Z,3.40
2018-06-17T22:01:53.114Z,3.27
2018-06-17T22:04:26.898Z,3.70
2018-06-17T22:06:55.449Z,2.73
2018-06-17T22:09:29.313Z,3.20
2018-06-17T22:12:03.032Z,3.50
2018-06-17T22:14:37.025Z,3.70
2018-06-17T22:17:10.777Z,3.40
2018-06-17T22:19:39.361Z,3.70
2018-06-17T22:22:07.920Z,3.10
2018-06-17T22:24:36.735Z,2.93
2018-06-17T22:27:05.225Z,3.13
2018-06-17T22:29:33.686Z,3.13
2018-06-17T22:32:02.090Z,2.87
2018-06-17T22:34:30.856Z,4.07
2018-06-17T22:36:59.299Z,3.17
2018-06-17T22:39:27.905Z,3.00
2018-06-17T22:41:56.409Z,3.80
2018-06-17T22:44:25.189Z,3.83
2018-06-17T22:46:53.956Z,3.40
2018-06-17T22:49:22.460Z,3.43
2018-06-17T22:51:50.924Z,3.40
2018-06-17T22:54:31.160Z,3.70
2018-06-17T22:57:05.061Z,3.50
2018-06-17T22:59:38.986Z,3.57
2018-06-17T23:02:12.800Z,3.23
2018-06-17T23:04:46.725Z,3.90
2018-06-17T23:07:20.544Z,3.53
2018-06-17T23:09:50.233Z,3.30
2018-06-17T23:12:18.840Z,3.60
2018-06-17T23:14:47.301Z,3.40
2018-06-17T23:17:15.818Z,4.17
2018-06-17T23:19:44.233Z,3.53
2018-06-17T23:22:12.684Z,3.93
2018-06-17T23:24:41.096Z,4.03
2018-06-17T23:27:09.557Z,3.40
2018-06-17T23:29:38.013Z,3.47
2018-06-17T23:32:06.568Z,3.77
2018-06-17T23:34:35.042Z,3.20
2018-06-17T23:37:03.546Z,3.40
2018-06-17T23:39:31.935Z,3.40
2018-06-17T23:42:00.479Z,3.00
2018-06-17T23:44:28.981Z,3.87
2018-06-17T23:48:06.721Z,3.40
2018-06-17T23:50:40.525Z,4.20
2018-06-17T23:53:14.497Z,3.60
2018-06-17T23:55:48.360Z,4.50
2018-06-17T23:58:16.916Z,3.50
